sensor_id;sensor_type;location;lat;lon;timestamp;P1;durP1;ratioP1;P2;durP2;ratioP2
8066;SDS011;4076;48.076;9.118;2022-07-05T00:00:55;7.30;;;6.80;;
8066;SDS011;4076;48.076;9.118;2022-07-05T00:03:20;8.07;;;7.30;;
8066;SDS011;4076;48.076;9.118;2022-07-05T00:05:46;8.20;;;7.60;;
8066;SDS011;4076;48.076;9.118;2022-07-05T00:08:12;7.17;;;6.67;;
8066;SDS011;4076;48.076;9.118;2022-07-05T00:10:38;10.03;;;6.97;;
8066;SDS011;4076;48.076;9.118;2022-07-05T00:13:04;6.60;;;6.20;;
8066;SDS011;4076;48.076;9.118;2022-07-05T00:15:30;7.07;;;6.67;;
8066;SDS011;4076;48.076;9.118;2022-07-05T00:17:56;8.57;;;7.77;;
8066;SDS011;4076;48.076;9.118;2022-07-05T00:20:22;7.10;;;6.30;;
8066;SDS011;4076;48.076;9.118;2022-07-05T00:22:48;7.27;;;6.27;;
8066;SDS011;4076;48.076;9.118;2022-07-05T00:25:13;7.53;;;6.83;;
8066;SDS011;4076;48.076;9.118;2022-07-05T00:27:40;6.73;;;6.10;;
8066;SDS011;4076;48.076;9.118;2022-07-05T00:30:06;7.47;;;6.93;;
8066;SDS011;4076;48.076;9.118;2022-07-05T00:32:33;7.40;;;6.30;;
8066;SDS011;4076;48.076;9.118;2022-07-05T00:34:59;7.30;;;6.60;;
8066;SDS011;4076;48.076;9.118;2022-07-05T00:37:24;7.83;;;6.50;;
8066;SDS011;4076;48.076;9.118;2022-07-05T00:39:50;7.77;;;7.20;;
8066;SDS011;4076;48.076;9.118;2022-07-05T00:42:16;7.93;;;7.20;;
8066;SDS011;4076;48.076;9.118;2022-07-05T00:44:42;6.40;;;5.90;;
8066;SDS011;4076;48.076;9.118;2022-07-05T00:47:08;8.47;;;7.67;;
8066;SDS011;4076;48.076;9.118;2022-07-05T00:49:35;8.30;;;7.30;;
8066;SDS011;4076;48.076;9.118;2022-07-05T00:52:02;8.03;;;7.27;;
8066;SDS011;4076;48.076;9.118;2022-07-05T00:54:30;6.93;;;6.33;;
8066;SDS011;4076;48.076;9.118;2022-07-05T00:56:58;6.37;;;5.87;;
8066;SDS011;4076;48.076;9.118;2022-07-05T00:59:24;6.87;;;6.30;;
8066;SDS011;4076;48.076;9.118;2022-07-05T01:04:35;6.23;;;5.63;;
8066;SDS011;4076;48.076;9.118;2022-07-05T01:07:00;8.47;;;7.77;;
8066;SDS011;4076;48.076;9.118;2022-07-05T01:09:28;8.20;;;7.60;;
8066;SDS011;4076;48.076;9.118;2022-07-05T01:11:54;6.90;;;6.40;;
8066;SDS011;4076;48.076;9.118;2022-07-05T01:14:21;6.90;;;6.30;;
8066;SDS011;4076;48.076;9.118;2022-07-05T01:16:51;7.00;;;6.47;;
8066;SDS011;4076;48.076;9.118;2022-07-05T01:19:19;6.13;;;5.70;;
8066;SDS011;4076;48.076;9.118;2022-07-05T01:21:46;6.73;;;6.23;;
8066;SDS011;4076;48.076;9.118;2022-07-05T01:24:13;5.90;;;5.57;;
8066;SDS011;4076;48.076;9.118;2022-07-05T01:26:41;6.80;;;6.13;;
8066;SDS011;4076;48.076;9.118;2022-07-05T01:29:08;6.40;;;5.80;;
8066;SDS011;4076;48.076;9.118;2022-07-05T01:31:37;5.97;;;5.53;;
8066;SDS011;4076;48.076;9.118;2022-07-05T01:34:04;6.90;;;6.43;;
8066;SDS011;4076;48.076;9.118;2022-07-05T01:36:30;7.07;;;6.57;;
8066;SDS011;4076;48.076;9.118;2022-07-05T01:38:57;7.27;;;6.40;;
8066;SDS011;4076;48.076;9.118;2022-07-05T01:41:23;6.67;;;6.17;;
8066;SDS011;4076;48.076;9.118;2022-07-05T01:43:49;5.83;;;5.43;;
8066;SDS011;4076;48.076;9.118;2022-07-05T01:46:15;6.00;;;5.60;;
8066;SDS011;4076;48.076;9.118;2022-07-05T01:48:42;6.40;;;5.80;;
8066;SDS011;4076;48.076;9.118;2022-07-05T01:51:21;6.70;;;6.10;;
8066;SDS011;4076;48.076;9.118;2022-07-05T01:53:52;6.83;;;6.27;;
8066;SDS011;4076;48.076;9.118;2022-07-05T01:56:18;6.27;;;5.87;;
8066;SDS011;4076;48.076;9.118;2022-07-05T01:58:44;5.90;;;5.37;;
8066;SDS011;4076;48.076;9.118;2022-07-05T02:01:10;5.10;;;4.67;;
8066;SDS011;4076;48.076;9.118;2022-07-05T02:03:39;8.93;;;5.93;;
8066;SDS011;4076;48.076;9.118;2022-07-05T02:06:05;6.10;;;5.53;;
8066;SDS011;4076;48.076;9.118;2022-07-05T02:08:35;6.30;;;5.70;;
8066;SDS011;4076;48.076;9.118;2022-07-05T02:11:02;6.77;;;6.10;;
8066;SDS011;4076;48.076;9.118;2022-07-05T02:13:28;6.60;;;6.10;;
8066;SDS011;4076;48.076;9.118;2022-07-05T02:15:54;6.10;;;5.60;;
8066;SDS011;4076;48.076;9.118;2022-07-05T02:18:20;5.93;;;5.50;;
8066;SDS011;4076;48.076;9.118;2022-07-05T02:20:45;12.40;;;7.13;;
8066;SDS011;4076;48.076;9.118;2022-07-05T02:23:11;6.03;;;5.43;;
8066;SDS011;4076;48.076;9.118;2022-07-05T02:25:37;6.60;;;6.10;;
8066;SDS011;4076;48.076;9.118;2022-07-05T02:28:02;6.37;;;5.77;;
8066;SDS011;4076;48.076;9.118;2022-07-05T02:30:29;9.00;;;7.10;;
8066;SDS011;4076;48.076;9.118;2022-07-05T02:32:55;7.00;;;6.50;;
8066;SDS011;4076;48.076;9.118;2022-07-05T02:35:20;8.87;;;7.73;;
8066;SDS011;4076;48.076;9.118;2022-07-05T02:37:46;6.90;;;6.40;;
8066;SDS011;4076;48.076;9.118;2022-07-05T02:40:12;6.93;;;6.33;;
8066;SDS011;4076;48.076;9.118;2022-07-05T02:42:39;6.43;;;6.03;;
8066;SDS011;4076;48.076;9.118;2022-07-05T02:45:05;6.73;;;6.27;;
8066;SDS011;4076;48.076;9.118;2022-07-05T02:47:32;7.67;;;7.07;;
8066;SDS011;4076;48.076;9.118;2022-07-05T02:50:02;6.60;;;6.20;;
8066;SDS011;4076;48.076;9.118;2022-07-05T02:52:29;6.70;;;6.20;;
8066;SDS011;4076;48.076;9.118;2022-07-05T02:54:54;6.73;;;6.23;;
8066;SDS011;4076;48.076;9.118;2022-07-05T02:57:20;7.27;;;6.73;;
8066;SDS011;4076;48.076;9.118;2022-07-05T02:59:46;7.70;;;7.10;;
8066;SDS011;4076;48.076;9.118;2022-07-05T03:02:11;7.60;;;6.87;;
8066;SDS011;4076;48.076;9.118;2022-07-05T03:04:37;6.83;;;6.30;;
8066;SDS011;4076;48.076;9.118;2022-07-05T03:07:03;6.80;;;6.30;;
8066;SDS011;4076;48.076;9.118;2022-07-05T03:09:28;7.43;;;6.93;;
8066;SDS011;4076;48.076;9.118;2022-07-05T03:11:54;7.73;;;7.20;;
8066;SDS011;4076;48.076;9.118;2022-07-05T03:14:19;6.83;;;6.33;;
8066;SDS011;4076;48.076;9.118;2022-07-05T03:16:45;7.83;;;6.40;;
8066;SDS011;4076;48.076;9.118;2022-07-05T03:19:11;6.30;;;5.90;;
8066;SDS011;4076;48.076;9.118;2022-07-05T03:21:36;6.33;;;5.83;;
8066;SDS011;4076;48.076;9.118;2022-07-05T03:24:02;6.73;;;6.23;;
8066;SDS011;4076;48.076;9.118;2022-07-05T03:26:28;6.13;;;5.73;;
8066;SDS011;4076;48.076;9.118;2022-07-05T03:28:53;5.67;;;5.23;;
8066;SDS011;4076;48.076;9.118;2022-07-05T03:31:19;6.37;;;5.97;;
8066;SDS011;4076;48.076;9.118;2022-07-05T03:33:45;22.77;;;6.63;;
8066;SDS011;4076;48.076;9.118;2022-07-05T03:36:10;5.73;;;5.23;;
8066;SDS011;4076;48.076;9.118;2022-07-05T03:38:36;5.60;;;5.20;;
8066;SDS011;4076;48.076;9.118;2022-07-05T03:41:02;5.30;;;4.90;;
8066;SDS011;4076;48.076;9.118;2022-07-05T03:43:27;7.47;;;6.97;;
8066;SDS011;4076;48.076;9.118;2022-07-05T03:45:53;7.40;;;6.80;;
8066;SDS011;4076;48.076;9.118;2022-07-05T03:48:19;6.03;;;5.50;;
8066;SDS011;4076;48.076;9.118;2022-07-05T03:50:45;7.10;;;6.60;;
8066;SDS011;4076;48.076;9.118;2022-07-05T03:53:11;9.33;;;6.30;;
8066;SDS011;4076;48.076;9.118;2022-07-05T03:55:37;5.60;;;5.27;;
8066;SDS011;4076;48.076;9.118;2022-07-05T03:58:02;5.90;;;5.40;;
8066;SDS011;4076;48.076;9.118;2022-07-05T04:00:28;6.03;;;5.63;;
8066;SDS011;4076;48.076;9.118;2022-07-05T04:02:54;7.17;;;6.40;;
8066;SDS011;4076;48.076;9.118;2022-07-05T04:05:19;7.20;;;6.60;;
8066;SDS011;4076;48.076;9.118;2022-07-05T04:07:53;7.60;;;5.63;;
8066;SDS011;4076;48.076;9.118;2022-07-05T04:10:20;6.00;;;5.60;;
8066;SDS011;4076;48.076;9.118;2022-07-05T04:12:46;6.00;;;5.60;;
8066;SDS011;4076;48.076;9.118;2022-07-05T04:15:12;6.50;;;6.00;;
8066;SDS011;4076;48.076;9.118;2022-07-05T04:17:48;6.47;;;5.93;;
8066;SDS011;4076;48.076;9.118;2022-07-05T04:20:16;6.00;;;5.60;;
8066;SDS011;4076;48.076;9.118;2022-07-05T04:22:42;5.30;;;4.80;;
8066;SDS011;4076;48.076;9.118;2022-07-05T04:25:08;6.30;;;5.90;;
8066;SDS011;4076;48.076;9.118;2022-07-05T04:27:50;6.77;;;6.27;;
8066;SDS011;4076;48.076;9.118;2022-07-05T04:30:20;6.27;;;5.87;;
8066;SDS011;4076;48.076;9.118;2022-07-05T04:32:47;6.93;;;6.37;;
8066;SDS011;4076;48.076;9.118;2022-07-05T04:35:14;5.37;;;4.90;;
8066;SDS011;4076;48.076;9.118;2022-07-05T04:37:40;5.87;;;5.47;;
8066;SDS011;4076;48.076;9.118;2022-07-05T04:40:07;5.30;;;5.00;;
8066;SDS011;4076;48.076;9.118;2022-07-05T04:42:35;5.10;;;4.80;;
8066;SDS011;4076;48.076;9.118;2022-07-05T04:45:00;5.63;;;5.23;;
8066;SDS011;4076;48.076;9.118;2022-07-05T04:47:27;6.30;;;5.67;;
8066;SDS011;4076;48.076;9.118;2022-07-05T04:49:54;4.80;;;4.50;;
8066;SDS011;4076;48.076;9.118;2022-07-05T04:52:21;5.77;;;5.37;;
8066;SDS011;4076;48.076;9.118;2022-07-05T04:54:47;5.60;;;5.17;;
8066;SDS011;4076;48.076;9.118;2022-07-05T04:57:13;6.00;;;5.60;;
8066;SDS011;4076;48.076;9.118;2022-07-05T04:59:39;5.37;;;5.07;;
8066;SDS011;4076;48.076;9.118;2022-07-05T05:02:04;7.10;;;6.10;;
8066;SDS011;4076;48.076;9.118;2022-07-05T05:04:30;5.30;;;4.90;;
8066;SDS011;4076;48.076;9.118;2022-07-05T05:06:55;4.63;;;4.33;;
8066;SDS011;4076;48.076;9.118;2022-07-05T05:09:21;4.70;;;4.40;;
8066;SDS011;4076;48.076;9.118;2022-07-05T05:11:47;5.50;;;5.10;;
8066;SDS011;4076;48.076;9.118;2022-07-05T05:14:13;3.73;;;3.53;;
8066;SDS011;4076;48.076;9.118;2022-07-05T05:16:39;3.80;;;3.50;;
8066;SDS011;4076;48.076;9.118;2022-07-05T05:19:05;4.10;;;3.90;;
8066;SDS011;4076;48.076;9.118;2022-07-05T05:21:31;3.77;;;3.57;;
8066;SDS011;4076;48.076;9.118;2022-07-05T05:23:56;3.30;;;3.10;;
8066;SDS011;4076;48.076;9.118;2022-07-05T05:26:22;4.10;;;3.80;;
8066;SDS011;4076;48.076;9.118;2022-07-05T05:28:48;3.40;;;3.20;;
8066;SDS011;4076;48.076;9.118;2022-07-05T05:31:13;3.50;;;3.30;;
8066;SDS011;4076;48.076;9.118;2022-07-05T05:33:39;3.47;;;3.27;;
8066;SDS011;4076;48.076;9.118;2022-07-05T05:36:05;4.47;;;4.23;;
8066;SDS011;4076;48.076;9.118;2022-07-05T05:38:31;3.10;;;2.90;;
8066;SDS011;4076;48.076;9.118;2022-07-05T05:40:57;3.30;;;3.10;;
8066;SDS011;4076;48.076;9.118;2022-07-05T05:43:22;2.77;;;2.53;;
8066;SDS011;4076;48.076;9.118;2022-07-05T05:45:48;3.07;;;2.97;;
8066;SDS011;4076;48.076;9.118;2022-07-05T05:48:14;3.30;;;3.10;;
8066;SDS011;4076;48.076;9.118;2022-07-05T05:50:39;3.03;;;2.93;;
8066;SDS011;4076;48.076;9.118;2022-07-05T05:53:05;3.30;;;3.10;;
8066;SDS011;4076;48.076;9.118;2022-07-05T05:55:31;2.67;;;2.50;;
8066;SDS011;4076;48.076;9.118;2022-07-05T05:58:13;3.10;;;2.90;;
8066;SDS011;4076;48.076;9.118;2022-07-05T06:00:40;3.77;;;3.57;;
8066;SDS011;4076;48.076;9.118;2022-07-05T06:03:07;3.20;;;3.10;;
8066;SDS011;4076;48.076;9.118;2022-07-05T06:05:32;3.77;;;3.40;;
8066;SDS011;4076;48.076;9.118;2022-07-05T06:07:58;3.23;;;3.03;;
8066;SDS011;4076;48.076;9.118;2022-07-05T06:10:28;4.20;;;3.10;;
8066;SDS011;4076;48.076;9.118;2022-07-05T06:12:55;2.63;;;2.43;;
8066;SDS011;4076;48.076;9.118;2022-07-05T06:15:22;3.30;;;3.10;;
8066;SDS011;4076;48.076;9.118;2022-07-05T06:17:48;3.00;;;2.90;;
8066;SDS011;4076;48.076;9.118;2022-07-05T06:20:17;3.27;;;3.07;;
8066;SDS011;4076;48.076;9.118;2022-07-05T06:22:44;3.40;;;3.20;;
8066;SDS011;4076;48.076;9.118;2022-07-05T06:25:11;2.90;;;2.80;;
8066;SDS011;4076;48.076;9.118;2022-07-05T06:27:43;3.60;;;3.33;;
8066;SDS011;4076;48.076;9.118;2022-07-05T06:30:13;2.47;;;2.37;;
8066;SDS011;4076;48.076;9.118;2022-07-05T06:32:42;2.80;;;2.70;;
8066;SDS011;4076;48.076;9.118;2022-07-05T06:35:09;3.23;;;2.93;;
8066;SDS011;4076;48.076;9.118;2022-07-05T06:37:44;3.90;;;3.70;;
8066;SDS011;4076;48.076;9.118;2022-07-05T06:40:24;3.53;;;3.23;;
8066;SDS011;4076;48.076;9.118;2022-07-05T06:42:55;5.00;;;4.60;;
8066;SDS011;4076;48.076;9.118;2022-07-05T06:45:22;2.43;;;2.33;;
8066;SDS011;4076;48.076;9.118;2022-07-05T06:47:59;2.57;;;2.37;;
8066;SDS011;4076;48.076;9.118;2022-07-05T06:50:25;3.10;;;2.90;;
8066;SDS011;4076;48.076;9.118;2022-07-05T06:52:51;2.70;;;2.60;;
8066;SDS011;4076;48.076;9.118;2022-07-05T06:55:17;3.50;;;3.30;;
8066;SDS011;4076;48.076;9.118;2022-07-05T06:57:43;5.53;;;3.00;;
8066;SDS011;4076;48.076;9.118;2022-07-05T07:00:10;2.40;;;2.30;;
8066;SDS011;4076;48.076;9.118;2022-07-05T07:02:36;3.03;;;2.87;;
8066;SDS011;4076;48.076;9.118;2022-07-05T07:05:02;4.00;;;2.60;;
8066;SDS011;4076;48.076;9.118;2022-07-05T07:07:30;2.57;;;2.47;;
8066;SDS011;4076;48.076;9.118;2022-07-05T07:10:15;3.17;;;2.63;;
8066;SDS011;4076;48.076;9.118;2022-07-05T07:12:41;3.60;;;3.40;;
8066;SDS011;4076;48.076;9.118;2022-07-05T07:15:06;2.93;;;2.83;;
8066;SDS011;4076;48.076;9.118;2022-07-05T07:17:32;2.50;;;2.40;;
8066;SDS011;4076;48.076;9.118;2022-07-05T07:19:58;2.73;;;2.63;;
8066;SDS011;4076;48.076;9.118;2022-07-05T07:22:24;2.50;;;2.40;;
8066;SDS011;4076;48.076;9.118;2022-07-05T07:24:49;3.23;;;3.13;;
8066;SDS011;4076;48.076;9.118;2022-07-05T07:27:15;2.23;;;2.13;;
8066;SDS011;4076;48.076;9.118;2022-07-05T07:29:40;3.70;;;2.70;;
8066;SDS011;4076;48.076;9.118;2022-07-05T07:32:07;2.50;;;2.40;;
8066;SDS011;4076;48.076;9.118;2022-07-05T07:34:34;2.77;;;2.63;;
8066;SDS011;4076;48.076;9.118;2022-07-05T07:37:02;2.67;;;2.57;;
8066;SDS011;4076;48.076;9.118;2022-07-05T07:39:28;2.33;;;2.23;;
8066;SDS011;4076;48.076;9.118;2022-07-05T07:41:54;3.73;;;2.33;;
8066;SDS011;4076;48.076;9.118;2022-07-05T07:44:19;4.60;;;2.53;;
8066;SDS011;4076;48.076;9.118;2022-07-05T07:46:45;2.80;;;2.70;;
8066;SDS011;4076;48.076;9.118;2022-07-05T07:49:11;3.17;;;2.87;;
8066;SDS011;4076;48.076;9.118;2022-07-05T07:51:37;2.20;;;2.10;;
8066;SDS011;4076;48.076;9.118;2022-07-05T07:54:04;2.03;;;1.93;;
8066;SDS011;4076;48.076;9.118;2022-07-05T07:56:29;2.43;;;2.33;;
8066;SDS011;4076;48.076;9.118;2022-07-05T07:58:55;5.33;;;2.10;;
8066;SDS011;4076;48.076;9.118;2022-07-05T08:01:21;1.87;;;1.77;;
8066;SDS011;4076;48.076;9.118;2022-07-05T08:03:47;2.50;;;2.13;;
8066;SDS011;4076;48.076;9.118;2022-07-05T08:06:13;2.07;;;1.97;;
8066;SDS011;4076;48.076;9.118;2022-07-05T08:08:40;1.90;;;1.80;;
8066;SDS011;4076;48.076;9.118;2022-07-05T08:11:09;2.10;;;2.00;;
8066;SDS011;4076;48.076;9.118;2022-07-05T08:13:35;2.13;;;1.87;;
8066;SDS011;4076;48.076;9.118;2022-07-05T08:16:02;1.90;;;1.80;;
8066;SDS011;4076;48.076;9.118;2022-07-05T08:18:28;2.57;;;2.37;;
8066;SDS011;4076;48.076;9.118;2022-07-05T08:21:12;3.40;;;3.10;;
8066;SDS011;4076;48.076;9.118;2022-07-05T08:23:57;4.10;;;2.23;;
8066;SDS011;4076;48.076;9.118;2022-07-05T08:26:23;3.23;;;3.13;;
8066;SDS011;4076;48.076;9.118;2022-07-05T08:28:48;2.00;;;1.90;;
8066;SDS011;4076;48.076;9.118;2022-07-05T08:31:14;2.63;;;2.53;;
8066;SDS011;4076;48.076;9.118;2022-07-05T08:33:39;2.77;;;2.67;;
8066;SDS011;4076;48.076;9.118;2022-07-05T08:36:05;2.77;;;2.67;;
8066;SDS011;4076;48.076;9.118;2022-07-05T08:38:31;3.20;;;3.10;;
8066;SDS011;4076;48.076;9.118;2022-07-05T08:40:57;3.30;;;3.20;;
8066;SDS011;4076;48.076;9.118;2022-07-05T08:43:23;3.65;;;3.55;;
8066;SDS011;4076;48.076;9.118;2022-07-05T08:45:49;3.38;;;3.25;;
8066;SDS011;4076;48.076;9.118;2022-07-05T08:48:17;4.35;;;4.15;;
8066;SDS011;4076;48.076;9.118;2022-07-05T08:50:45;4.03;;;3.72;;
8066;SDS011;4076;48.076;9.118;2022-07-05T08:53:17;4.28;;;4.18;;
8066;SDS011;4076;48.076;9.118;2022-07-05T08:55:43;4.72;;;4.63;;
8066;SDS011;4076;48.076;9.118;2022-07-05T08:58:10;4.72;;;4.63;;
8066;SDS011;4076;48.076;9.118;2022-07-05T09:00:37;4.30;;;4.20;;
8066;SDS011;4076;48.076;9.118;2022-07-05T09:03:07;4.78;;;4.68;;
8066;SDS011;4076;48.076;9.118;2022-07-05T09:05:37;4.65;;;4.45;;
8066;SDS011;4076;48.076;9.118;2022-07-05T09:08:09;4.55;;;4.40;;
8066;SDS011;4076;48.076;9.118;2022-07-05T09:10:36;4.43;;;4.32;;
8066;SDS011;4076;48.076;9.118;2022-07-05T09:13:02;4.13;;;3.77;;
8066;SDS011;4076;48.076;9.118;2022-07-05T09:15:28;2.77;;;2.67;;
8066;SDS011;4076;48.076;9.118;2022-07-05T09:17:54;2.57;;;2.40;;
8066;SDS011;4076;48.076;9.118;2022-07-05T09:20:19;2.13;;;1.93;;
8066;SDS011;4076;48.076;9.118;2022-07-05T09:22:52;1.83;;;1.73;;
8066;SDS011;4076;48.076;9.118;2022-07-05T09:25:26;2.30;;;2.20;;
8066;SDS011;4076;48.076;9.118;2022-07-05T09:30:35;2.13;;;2.03;;
8066;SDS011;4076;48.076;9.118;2022-07-05T09:33:08;1.93;;;1.83;;
8066;SDS011;4076;48.076;9.118;2022-07-05T09:35:38;2.67;;;2.57;;
8066;SDS011;4076;48.076;9.118;2022-07-05T09:38:06;1.87;;;1.77;;
8066;SDS011;4076;48.076;9.118;2022-07-05T09:40:51;1.70;;;1.60;;
8066;SDS011;4076;48.076;9.118;2022-07-05T09:43:25;1.90;;;1.80;;
8066;SDS011;4076;48.076;9.118;2022-07-05T09:45:59;1.60;;;1.50;;
8066;SDS011;4076;48.076;9.118;2022-07-05T09:48:27;1.73;;;1.63;;
8066;SDS011;4076;48.076;9.118;2022-07-05T09:51:10;2.07;;;1.97;;
8066;SDS011;4076;48.076;9.118;2022-07-05T09:54:10;2.40;;;2.23;;
8066;SDS011;4076;48.076;9.118;2022-07-05T09:56:29;1.70;;;1.60;;
8066;SDS011;4076;48.076;9.118;2022-07-05T09:59:14;2.17;;;1.90;;
8066;SDS011;4076;48.076;9.118;2022-07-05T10:01:42;2.27;;;2.07;;
8066;SDS011;4076;48.076;9.118;2022-07-05T10:04:08;1.87;;;1.77;;
8066;SDS011;4076;48.076;9.118;2022-07-05T10:06:34;1.90;;;1.80;;
8066;SDS011;4076;48.076;9.118;2022-07-05T10:08:59;1.73;;;1.63;;
8066;SDS011;4076;48.076;9.118;2022-07-05T10:11:26;1.57;;;1.47;;
8066;SDS011;4076;48.076;9.118;2022-07-05T10:13:52;1.70;;;1.60;;
8066;SDS011;4076;48.076;9.118;2022-07-05T10:16:19;2.07;;;1.97;;
8066;SDS011;4076;48.076;9.118;2022-07-05T10:18:46;2.47;;;2.23;;
8066;SDS011;4076;48.076;9.118;2022-07-05T10:21:17;1.63;;;1.53;;
8066;SDS011;4076;48.076;9.118;2022-07-05T10:23:48;1.73;;;1.63;;
8066;SDS011;4076;48.076;9.118;2022-07-05T10:26:16;2.60;;;1.70;;
8066;SDS011;4076;48.076;9.118;2022-07-05T10:28:47;1.70;;;1.60;;
8066;SDS011;4076;48.076;9.118;2022-07-05T10:31:17;1.70;;;1.60;;
8066;SDS011;4076;48.076;9.118;2022-07-05T10:33:44;2.00;;;1.90;;
8066;SDS011;4076;48.076;9.118;2022-07-05T10:36:10;2.00;;;1.90;;
8066;SDS011;4076;48.076;9.118;2022-07-05T10:38:37;1.90;;;1.80;;
8066;SDS011;4076;48.076;9.118;2022-07-05T10:41:06;2.07;;;1.80;;
8066;SDS011;4076;48.076;9.118;2022-07-05T10:43:34;1.80;;;1.70;;
8066;SDS011;4076;48.076;9.118;2022-07-05T10:46:00;1.40;;;1.30;;
8066;SDS011;4076;48.076;9.118;2022-07-05T10:48:27;1.80;;;1.70;;
8066;SDS011;4076;48.076;9.118;2022-07-05T10:50:58;1.80;;;1.70;;
8066;SDS011;4076;48.076;9.118;2022-07-05T10:53:24;1.67;;;1.57;;
8066;SDS011;4076;48.076;9.118;2022-07-05T10:58:23;2.50;;;2.30;;
8066;SDS011;4076;48.076;9.118;2022-07-05T11:06:39;2.00;;;1.80;;
8066;SDS011;4076;48.076;9.118;2022-07-05T11:11:36;1.77;;;1.67;;
8066;SDS011;4076;48.076;9.118;2022-07-05T11:14:28;1.53;;;1.43;;
8066;SDS011;4076;48.076;9.118;2022-07-05T11:25:52;1.73;;;1.50;;
8066;SDS011;4076;48.076;9.118;2022-07-05T11:28:20;1.87;;;1.77;;
8066;SDS011;4076;48.076;9.118;2022-07-05T11:36:23;2.13;;;1.30;;
8066;SDS011;4076;48.076;9.118;2022-07-05T11:41:46;1.97;;;1.40;;
8066;SDS011;4076;48.076;9.118;2022-07-05T11:44:12;3.80;;;2.27;;
8066;SDS011;4076;48.076;9.118;2022-07-05T11:46:40;2.03;;;1.80;;
8066;SDS011;4076;48.076;9.118;2022-07-05T11:49:06;2.03;;;1.93;;
8066;SDS011;4076;48.076;9.118;2022-07-05T11:51:32;1.80;;;1.70;;
8066;SDS011;4076;48.076;9.118;2022-07-05T11:53:57;1.77;;;1.67;;
8066;SDS011;4076;48.076;9.118;2022-07-05T11:56:23;1.77;;;1.67;;
8066;SDS011;4076;48.076;9.118;2022-07-05T11:58:49;1.80;;;1.70;;
8066;SDS011;4076;48.076;9.118;2022-07-05T12:01:15;1.50;;;1.40;;
8066;SDS011;4076;48.076;9.118;2022-07-05T12:03:40;1.87;;;1.77;;
8066;SDS011;4076;48.076;9.118;2022-07-05T12:06:18;2.07;;;1.40;;
8066;SDS011;4076;48.076;9.118;2022-07-05T12:08:45;1.40;;;1.30;;
8066;SDS011;4076;48.076;9.118;2022-07-05T12:11:11;1.50;;;1.40;;
8066;SDS011;4076;48.076;9.118;2022-07-05T12:13:56;1.40;;;1.30;;
8066;SDS011;4076;48.076;9.118;2022-07-05T12:16:22;1.47;;;1.37;;
8066;SDS011;4076;48.076;9.118;2022-07-05T12:18:50;2.60;;;1.60;;
8066;SDS011;4076;48.076;9.118;2022-07-05T12:21:21;1.67;;;1.57;;
8066;SDS011;4076;48.076;9.118;2022-07-05T12:23:50;1.43;;;1.33;;
8066;SDS011;4076;48.076;9.118;2022-07-05T12:26:17;1.50;;;1.40;;
8066;SDS011;4076;48.076;9.118;2022-07-05T12:28:44;1.93;;;1.83;;
8066;SDS011;4076;48.076;9.118;2022-07-05T12:31:21;1.50;;;1.40;;
8066;SDS011;4076;48.076;9.118;2022-07-05T12:33:49;3.10;;;1.53;;
8066;SDS011;4076;48.076;9.118;2022-07-05T12:36:17;2.37;;;1.97;;
8066;SDS011;4076;48.076;9.118;2022-07-05T12:38:44;1.60;;;1.50;;
8066;SDS011;4076;48.076;9.118;2022-07-05T12:41:10;1.43;;;1.33;;
8066;SDS011;4076;48.076;9.118;2022-07-05T12:46:15;1.60;;;1.50;;
8066;SDS011;4076;48.076;9.118;2022-07-05T12:48:41;2.20;;;1.87;;
8066;SDS011;4076;48.076;9.118;2022-07-05T12:51:07;1.53;;;1.43;;
8066;SDS011;4076;48.076;9.118;2022-07-05T12:53:34;1.70;;;1.60;;
8066;SDS011;4076;48.076;9.118;2022-07-05T12:56:27;1.77;;;1.67;;
8066;SDS011;4076;48.076;9.118;2022-07-05T12:59:11;1.50;;;1.40;;
8066;SDS011;4076;48.076;9.118;2022-07-05T13:01:37;1.50;;;1.40;;
8066;SDS011;4076;48.076;9.118;2022-07-05T13:04:08;1.77;;;1.40;;
8066;SDS011;4076;48.076;9.118;2022-07-05T13:06:57;1.40;;;1.30;;
8066;SDS011;4076;48.076;9.118;2022-07-05T13:09:36;2.23;;;2.10;;
8066;SDS011;4076;48.076;9.118;2022-07-05T13:12:16;2.07;;;1.50;;
8066;SDS011;4076;48.076;9.118;2022-07-05T13:14:50;1.40;;;1.30;;
8066;SDS011;4076;48.076;9.118;2022-07-05T13:17:18;1.30;;;1.20;;
8066;SDS011;4076;48.076;9.118;2022-07-05T13:19:46;1.80;;;1.70;;
8066;SDS011;4076;48.076;9.118;2022-07-05T13:22:13;1.60;;;1.50;;
8066;SDS011;4076;48.076;9.118;2022-07-05T13:24:39;1.67;;;1.57;;
8066;SDS011;4076;48.076;9.118;2022-07-05T13:27:06;1.40;;;1.30;;
8066;SDS011;4076;48.076;9.118;2022-07-05T13:29:33;1.50;;;1.40;;
8066;SDS011;4076;48.076;9.118;2022-07-05T13:31:59;1.80;;;1.70;;
8066;SDS011;4076;48.076;9.118;2022-07-05T13:34:25;1.43;;;1.33;;
8066;SDS011;4076;48.076;9.118;2022-07-05T13:36:51;1.60;;;1.50;;
8066;SDS011;4076;48.076;9.118;2022-07-05T13:39:18;1.43;;;1.33;;
8066;SDS011;4076;48.076;9.118;2022-07-05T13:41:46;1.67;;;1.57;;
8066;SDS011;4076;48.076;9.118;2022-07-05T13:44:12;1.50;;;1.40;;
8066;SDS011;4076;48.076;9.118;2022-07-05T13:46:38;2.30;;;1.57;;
8066;SDS011;4076;48.076;9.118;2022-07-05T13:49:03;1.80;;;1.63;;
8066;SDS011;4076;48.076;9.118;2022-07-05T13:51:29;1.43;;;1.33;;
8066;SDS011;4076;48.076;9.118;2022-07-05T13:53:55;2.00;;;1.90;;
8066;SDS011;4076;48.076;9.118;2022-07-05T13:56:20;1.70;;;1.60;;
8066;SDS011;4076;48.076;9.118;2022-07-05T13:58:46;1.63;;;1.53;;
8066;SDS011;4076;48.076;9.118;2022-07-05T14:01:12;2.40;;;2.20;;
8066;SDS011;4076;48.076;9.118;2022-07-05T14:03:37;2.50;;;1.97;;
8066;SDS011;4076;48.076;9.118;2022-07-05T14:06:03;1.70;;;1.60;;
8066;SDS011;4076;48.076;9.118;2022-07-05T14:08:29;2.37;;;2.27;;
8066;SDS011;4076;48.076;9.118;2022-07-05T14:10:55;1.90;;;1.70;;
8066;SDS011;4076;48.076;9.118;2022-07-05T14:13:22;1.67;;;1.57;;
8066;SDS011;4076;48.076;9.118;2022-07-05T14:15:49;2.10;;;2.00;;
8066;SDS011;4076;48.076;9.118;2022-07-05T14:18:15;1.87;;;1.77;;
8066;SDS011;4076;48.076;9.118;2022-07-05T14:20:42;3.03;;;1.90;;
8066;SDS011;4076;48.076;9.118;2022-07-05T14:23:09;2.00;;;1.90;;
8066;SDS011;4076;48.076;9.118;2022-07-05T14:25:36;2.00;;;1.90;;
8066;SDS011;4076;48.076;9.118;2022-07-05T14:28:02;2.67;;;2.47;;
8066;SDS011;4076;48.076;9.118;2022-07-05T14:30:32;2.10;;;2.00;;
8066;SDS011;4076;48.076;9.118;2022-07-05T14:32:59;2.27;;;1.60;;
8066;SDS011;4076;48.076;9.118;2022-07-05T14:35:25;2.50;;;2.10;;
8066;SDS011;4076;48.076;9.118;2022-07-05T14:37:52;3.90;;;2.60;;
8066;SDS011;4076;48.076;9.118;2022-07-05T14:40:17;2.00;;;1.90;;
8066;SDS011;4076;48.076;9.118;2022-07-05T14:42:43;2.43;;;2.33;;
8066;SDS011;4076;48.076;9.118;2022-07-05T14:45:09;2.47;;;2.10;;
8066;SDS011;4076;48.076;9.118;2022-07-05T14:47:35;2.23;;;2.13;;
8066;SDS011;4076;48.076;9.118;2022-07-05T14:50:01;2.37;;;2.23;;
8066;SDS011;4076;48.076;9.118;2022-07-05T14:52:27;2.40;;;2.30;;
8066;SDS011;4076;48.076;9.118;2022-07-05T14:54:54;2.00;;;1.80;;
8066;SDS011;4076;48.076;9.118;2022-07-05T14:57:20;2.47;;;2.27;;
8066;SDS011;4076;48.076;9.118;2022-07-05T14:59:45;3.13;;;2.93;;
8066;SDS011;4076;48.076;9.118;2022-07-05T15:02:11;2.90;;;2.80;;
8066;SDS011;4076;48.076;9.118;2022-07-05T15:04:39;2.50;;;2.40;;
8066;SDS011;4076;48.076;9.118;2022-07-05T15:07:05;2.97;;;2.77;;
8066;SDS011;4076;48.076;9.118;2022-07-05T15:09:31;2.60;;;2.40;;
8066;SDS011;4076;48.076;9.118;2022-07-05T15:11:56;3.20;;;2.90;;
8066;SDS011;4076;48.076;9.118;2022-07-05T15:14:22;3.17;;;2.90;;
8066;SDS011;4076;48.076;9.118;2022-07-05T15:16:47;3.07;;;2.87;;
8066;SDS011;4076;48.076;9.118;2022-07-05T15:19:13;2.67;;;2.57;;
8066;SDS011;4076;48.076;9.118;2022-07-05T15:21:39;2.57;;;2.47;;
8066;SDS011;4076;48.076;9.118;2022-07-05T15:24:05;2.90;;;2.70;;
8066;SDS011;4076;48.076;9.118;2022-07-05T15:26:31;2.40;;;2.30;;
8066;SDS011;4076;48.076;9.118;2022-07-05T15:29:04;2.87;;;2.67;;
8066;SDS011;4076;48.076;9.118;2022-07-05T15:31:32;3.37;;;3.17;;
8066;SDS011;4076;48.076;9.118;2022-07-05T15:33:59;2.77;;;2.67;;
8066;SDS011;4076;48.076;9.118;2022-07-05T15:36:26;2.73;;;2.53;;
8066;SDS011;4076;48.076;9.118;2022-07-05T15:38:52;3.90;;;3.53;;
8066;SDS011;4076;48.076;9.118;2022-07-05T15:41:19;3.10;;;3.00;;
8066;SDS011;4076;48.076;9.118;2022-07-05T15:43:45;2.47;;;2.37;;
8066;SDS011;4076;48.076;9.118;2022-07-05T15:46:10;3.00;;;2.90;;
8066;SDS011;4076;48.076;9.118;2022-07-05T15:48:36;3.03;;;2.83;;
8066;SDS011;4076;48.076;9.118;2022-07-05T15:51:02;2.63;;;2.53;;
8066;SDS011;4076;48.076;9.118;2022-07-05T15:53:29;2.80;;;2.60;;